Time;durP1;ratioP1;P1;durP2;ratioP2;P2;SDS_P1;SDS_P2;PMS_P1;PMS_P2;Temp;Humidity;BMP_temperature;BMP_pressure;BME280_temperature;BME280_humidity;BME280_pressure;Samples;Min_cycle;Max_cycle;Signal;HPM_P1;HPM_P2
2023/01/23 00:01:15;;;;;;;3.80;3.50;;;2.80;1.00;;;;;;5033753;28;20406;-70
2023/01/23 00:03:41;;;;;;;4.30;3.90;;;2.80;1.00;;;;;;5034142;28;20194;-70
2023/01/23 00:06:11;;;;;;;8.53;3.80;;;2.80;1.00;;;;;;5032854;28;20426;-71
2023/01/23 00:08:38;;;;;;;4.80;4.37;;;2.80;1.00;;;;;;5034026;28;20453;-71
2023/01/23 00:11:06;;;;;;;8.60;4.27;;;2.80;1.00;;;;;;5041798;28;21055;-70
2023/01/23 00:13:32;;;;;;;4.10;3.80;;;2.70;1.00;;;;;;5053952;28;20495;-70
2023/01/23 00:15:58;;;;;;;6.63;5.10;;;2.80;1.00;;;;;;5052892;28;20433;-70
2023/01/23 00:18:23;;;;;;;5.20;4.27;;;2.70;1.00;;;;;;5053901;28;20905;-70
2023/01/23 00:20:49;;;;;;;7.27;4.17;;;2.80;1.00;;;;;;5053758;28;20519;-70
2023/01/23 00:23:14;;;;;;;4.90;4.20;;;2.80;1.00;;;;;;5051248;28;20212;-71
2023/01/23 00:25:40;;;;;;;4.17;3.87;;;2.70;1.00;;;;;;5032409;28;20266;-71
2023/01/23 00:28:06;;;;;;;4.20;3.80;;;2.70;1.00;;;;;;5033677;28;20509;-71
2023/01/23 00:30:32;;;;;;;4.23;3.93;;;2.70;1.00;;;;;;5033661;28;20275;-70
2023/01/23 00:32:58;;;;;;;10.07;4.80;;;2.70;1.00;;;;;;5033671;28;20246;-71
2023/01/23 00:35:24;;;;;;;6.93;4.40;;;2.70;1.00;;;;;;5031588;28;21011;-71
2023/01/23 00:37:49;;;;;;;4.10;3.70;;;2.60;1.00;;;;;;5031876;28;20694;-70
2023/01/23 00:40:15;;;;;;;5.33;4.30;;;2.70;1.00;;;;;;5033389;28;20175;-70
2023/01/23 00:42:41;;;;;;;4.67;4.27;;;2.60;1.00;;;;;;5033083;28;20505;-71
2023/01/23 00:45:07;;;;;;;7.60;4.90;;;2.60;1.00;;;;;;5031191;28;20187;-71
2023/01/23 00:47:32;;;;;;;6.60;4.40;;;2.50;1.00;;;;;;5033384;28;20183;-70
2023/01/23 00:49:58;;;;;;;6.17;4.23;;;2.50;1.00;;;;;;5033377;28;20442;-71
2023/01/23 00:52:25;;;;;;;5.27;4.23;;;2.50;1.00;;;;;;5047917;28;20250;-71
2023/01/23 00:54:51;;;;;;;9.27;3.87;;;2.50;1.00;;;;;;5052285;28;20263;-71
2023/01/23 00:57:16;;;;;;;6.40;4.30;;;2.50;1.00;;;;;;5053256;28;20480;-70
2023/01/23 00:59:42;;;;;;;5.60;4.97;;;2.50;1.00;;;;;;5053036;28;20492;-71
2023/01/23 01:02:08;;;;;;;4.60;4.20;;;2.50;1.00;;;;;;5052424;28;20171;-70
2023/01/23 01:04:33;;;;;;;5.87;4.00;;;2.40;1.00;;;;;;5051266;28;20687;-70
2023/01/23 01:06:59;;;;;;;5.83;4.83;;;2.50;1.00;;;;;;5052976;28;20194;-70
2023/01/23 01:09:25;;;;;;;9.80;5.17;;;2.50;1.00;;;;;;5052965;28;20642;-71
2023/01/23 01:11:51;;;;;;;7.23;4.53;;;2.60;1.00;;;;;;5051734;28;20178;-71
2023/01/23 01:14:16;;;;;;;6.10;4.90;;;2.50;1.00;;;;;;5052394;28;20575;-72
2023/01/23 01:16:45;;;;;;;10.87;4.67;;;2.60;1.00;;;;;;5052584;28;20201;-71
2023/01/23 01:19:12;;;;;;;5.67;4.10;;;2.60;1.00;;;;;;5051369;28;20244;-71
2023/01/23 01:21:39;;;;;;;5.20;4.67;;;2.60;1.00;;;;;;5052918;28;20405;-71
2023/01/23 01:24:05;;;;;;;4.43;3.70;;;2.60;1.00;;;;;;5052706;28;20482;-70
2023/01/23 01:26:31;;;;;;;6.90;5.17;;;2.60;1.00;;;;;;5052164;28;20885;-71
2023/01/23 01:28:56;;;;;;;5.20;3.80;;;2.60;1.00;;;;;;5052801;28;20413;-70
2023/01/23 01:31:22;;;;;;;5.20;4.60;;;2.50;1.00;;;;;;5052845;28;20206;-71
2023/01/23 01:33:49;;;;;;;7.70;4.27;;;2.50;1.00;;;;;;5052003;28;20205;-71
2023/01/23 01:36:19;;;;;;;13.40;4.70;;;2.50;1.00;;;;;;5051730;28;20473;-70
2023/01/23 01:38:44;;;;;;;6.17;4.20;;;2.60;1.00;;;;;;5052161;28;20436;-71
2023/01/23 01:41:11;;;;;;;8.43;4.67;;;2.60;1.00;;;;;;5052852;28;20401;-71
2023/01/23 01:43:37;;;;;;;5.60;4.67;;;2.60;1.00;;;;;;5052723;28;20178;-70
2023/01/23 01:46:11;;;;;;;6.60;4.57;;;2.60;1.00;;;;;;5045022;28;20485;-71
2023/01/23 01:48:41;;;;;;;4.43;4.00;;;2.50;1.00;;;;;;5032782;28;20398;-71
2023/01/23 01:51:14;;;;;;;6.47;4.97;;;2.50;1.00;;;;;;5032730;28;20499;-70
2023/01/23 01:53:41;;;;;;;5.40;4.90;;;2.50;1.00;;;;;;5032782;28;20480;-69
2023/01/23 01:56:10;;;;;;;4.80;4.30;;;2.50;1.00;;;;;;5031768;28;20450;-71
2023/01/23 01:58:37;;;;;;;6.77;4.43;;;2.50;1.00;;;;;;5031032;28;20421;-70
2023/01/23 02:01:03;;;;;;;4.57;4.17;;;2.50;1.00;;;;;;5038969;28;20433;-71
2023/01/23 02:03:29;;;;;;;5.43;3.70;;;2.50;1.00;;;;;;5052565;28;20909;-71
2023/01/23 02:05:55;;;;;;;4.53;4.23;;;2.50;1.00;;;;;;5051679;28;20429;-70
2023/01/23 02:08:29;;;;;;;6.90;4.20;;;2.50;1.00;;;;;;5052447;28;20436;-70
2023/01/23 02:10:55;;;;;;;5.60;4.30;;;2.50;1.00;;;;;;5048796;28;20209;-70
2023/01/23 02:13:34;;;;;;;4.90;4.50;;;2.60;1.00;;;;;;5051471;28;20479;-71
2023/01/23 02:16:06;;;;;;;5.70;3.83;;;2.60;1.00;;;;;;5051050;28;20443;-70
2023/01/23 02:18:34;;;;;;;5.13;4.73;;;2.60;1.00;;;;;;5052468;28;20394;-71
2023/01/23 02:21:05;;;;;;;6.10;4.37;;;2.60;1.00;;;;;;5052336;28;20429;-70
2023/01/23 02:23:46;;;;;;;5.80;4.90;;;2.60;1.00;;;;;;5049436;28;20395;-70
2023/01/23 02:26:24;;;;;;;6.80;5.30;;;2.60;1.00;;;;;;5035146;28;20421;-70
2023/01/23 02:28:52;;;;;;;6.80;4.93;;;2.60;1.00;;;;;;5035949;28;20437;-71
2023/01/23 02:31:18;;;;;;;5.53;4.70;;;2.50;1.00;;;;;;5035904;28;20446;-71
2023/01/23 02:33:57;;;;;;;5.67;5.13;;;2.50;1.00;;;;;;5034115;28;20456;-71
2023/01/23 02:36:25;;;;;;;5.10;4.70;;;2.50;1.00;;;;;;5034921;28;20422;-71
2023/01/23 02:39:00;;;;;;;7.57;4.43;;;2.50;1.00;;;;;;5040908;28;20451;-71
2023/01/23 02:41:38;;;;;;;8.00;6.00;;;2.50;1.00;;;;;;5048667;28;20425;-71
2023/01/23 02:44:16;;;;;;;4.67;4.33;;;2.50;1.00;;;;;;5035452;28;20480;-71
2023/01/23 02:46:44;;;;;;;6.70;4.67;;;2.50;1.00;;;;;;5035719;28;20445;-71
2023/01/23 02:49:10;;;;;;;5.60;5.00;;;2.40;1.00;;;;;;5035600;28;20406;-70
2023/01/23 02:51:36;;;;;;;5.00;4.60;;;2.50;1.00;;;;;;5035531;28;20461;-70
2023/01/23 02:54:02;;;;;;;7.57;5.50;;;2.50;1.00;;;;;;5050526;28;20487;-71
2023/01/23 02:56:28;;;;;;;5.37;4.87;;;2.50;1.00;;;;;;5054747;28;20257;-71
2023/01/23 03:01:38;;;;;;;9.13;4.83;;;2.50;1.00;;;;;;5055646;28;20408;-71
2023/01/23 03:04:05;;;;;;;6.40;5.13;;;2.50;1.00;;;;;;5055171;28;20398;-71
2023/01/23 03:06:36;;;;;;;7.80;4.70;;;2.60;1.00;;;;;;5044478;28;20213;-71
2023/01/23 03:09:06;;;;;;;4.33;3.93;;;2.60;1.00;;;;;;5035205;28;20485;-71
2023/01/23 03:11:33;;;;;;;7.00;4.50;;;2.70;1.00;;;;;;5034599;28;20513;-71
2023/01/23 03:13:59;;;;;;;5.20;3.83;;;2.70;1.00;;;;;;5035382;28;20410;-71
2023/01/23 03:16:25;;;;;;;6.17;5.50;;;2.80;1.00;;;;;;5034395;28;20462;-71
2023/01/23 03:18:50;;;;;;;4.77;4.20;;;2.70;1.00;;;;;;5035134;28;20394;-70
2023/01/23 03:21:16;;;;;;;5.47;4.53;;;2.70;1.00;;;;;;5034602;28;20187;-71
2023/01/23 03:23:45;;;;;;;5.47;5.00;;;2.70;1.00;;;;;;5034999;28;20262;-71
2023/01/23 03:26:11;;;;;;;5.10;4.47;;;2.70;1.00;;;;;;5034026;28;20194;-72
2023/01/23 03:31:20;;;;;;;7.07;5.37;;;2.60;1.00;;;;;;5034859;28;20683;-67
2023/01/23 03:33:47;;;;;;;4.57;4.17;;;2.70;1.00;;;;;;5034356;28;20446;-71
2023/01/23 03:36:13;;;;;;;10.68;4.45;;;2.70;1.00;;;;;;5032752;28;20293;-71
2023/01/23 03:41:23;;;;;;;8.03;5.13;;;2.70;1.00;;;;;;5034890;28;20256;-70
2023/01/23 03:41:25;;;;;;;7.00;5.13;;;2.70;1.00;;;;;;5034401;28;20640;-71
2023/01/23 03:43:51;;;;;;;4.60;4.20;;;2.60;1.00;;;;;;5033535;28;20479;-71
2023/01/23 03:46:16;;;;;;;5.33;4.83;;;2.60;1.00;;;;;;5034965;28;20942;-71
2023/01/23 03:48:42;;;;;;;4.10;3.80;;;2.70;1.00;;;;;;5054047;28;20175;-71
2023/01/23 03:51:08;;;;;;;6.60;4.53;;;2.80;1.00;;;;;;5054452;28;20232;-70
2023/01/23 03:53:34;;;;;;;5.20;3.70;;;2.80;1.00;;;;;;5054342;28;20163;-70
2023/01/23 03:56:00;;;;;;;7.40;4.97;;;2.80;1.00;;;;;;5053411;28;20667;-71
2023/01/23 03:58:26;;;;;;;20.33;4.50;;;2.80;1.00;;;;;;5054371;28;20163;-71
2023/01/23 04:00:52;;;;;;;5.60;5.00;;;2.80;1.00;;;;;;5053205;28;20519;-71
2023/01/23 04:03:18;;;;;;;4.70;3.83;;;2.70;1.00;;;;;;5054286;28;20807;-70
2023/01/23 04:05:43;;;;;;;9.23;4.90;;;2.70;1.00;;;;;;5052791;28;20194;-71
2023/01/23 04:08:09;;;;;;;4.73;4.43;;;2.70;1.00;;;;;;5053800;28;20174;-71
2023/01/23 04:10:35;;;;;;;5.53;4.57;;;2.70;1.00;;;;;;5054184;28;20191;-70
2023/01/23 04:13:01;;;;;;;4.23;3.70;;;2.70;1.00;;;;;;5053788;28;20167;-71
2023/01/23 04:15:27;;;;;;;5.03;4.30;;;2.80;1.00;;;;;;5033085;28;20430;-71
2023/01/23 04:17:52;;;;;;;7.83;4.20;;;2.90;1.00;;;;;;5033961;28;20398;-71
2023/01/23 04:20:18;;;;;;;4.70;4.30;;;3.00;1.00;;;;;;5033976;28;20232;-71
2023/01/23 04:22:44;;;;;;;6.53;5.30;;;3.10;1.00;;;;;;5033939;28;20174;-71
2023/01/23 04:25:09;;;;;;;4.50;4.10;;;3.00;1.00;;;;;;5032387;28;20560;-71
2023/01/23 04:27:35;;;;;;;8.50;5.03;;;2.90;1.00;;;;;;5033802;28;20168;-72
2023/01/23 04:30:02;;;;;;;5.70;4.70;;;2.90;1.00;;;;;;5033484;28;20481;-71
2023/01/23 04:32:28;;;;;;;4.67;4.20;;;2.90;1.00;;;;;;5033656;28;20174;-71
2023/01/23 04:34:53;;;;;;;4.73;4.37;;;2.90;1.00;;;;;;5032770;28;20426;-71
2023/01/23 04:37:19;;;;;;;5.40;4.90;;;2.90;1.00;;;;;;5033711;28;20226;-71
2023/01/23 04:39:45;;;;;;;4.77;4.27;;;2.90;1.00;;;;;;5033612;28;20171;-70
2023/01/23 04:42:10;;;;;;;4.93;4.43;;;2.80;1.00;;;;;;5033488;28;20607;-70
2023/01/23 04:44:36;;;;;;;5.60;4.27;;;2.80;1.00;;;;;;5048958;28;20199;-71
2023/01/23 04:47:02;;;;;;;4.10;3.80;;;2.80;1.00;;;;;;5052949;28;20163;-71
2023/01/23 04:49:27;;;;;;;6.50;4.93;;;2.70;1.00;;;;;;5053320;28;20193;-71
2023/01/23 04:51:53;;;;;;;4.77;4.40;;;2.70;1.00;;;;;;5053396;28;20217;-71
2023/01/23 04:54:20;;;;;;;5.03;4.50;;;2.70;1.00;;;;;;5051118;28;20193;-71
2023/01/23 04:56:47;;;;;;;4.27;3.87;;;2.70;1.00;;;;;;5052176;28;20537;-71
2023/01/23 04:59:14;;;;;;;6.33;5.47;;;2.70;1.00;;;;;;5051983;28;20902;-71
2023/01/23 05:01:40;;;;;;;5.43;4.93;;;2.70;1.00;;;;;;5053093;28;20409;-71
2023/01/23 05:04:06;;;;;;;9.30;5.43;;;2.80;1.00;;;;;;5052160;28;20413;-71
2023/01/23 05:06:32;;;;;;;5.60;4.80;;;2.70;1.00;;;;;;5052604;28;20401;-71
2023/01/23 05:08:58;;;;;;;8.37;5.60;;;2.70;1.00;;;;;;5053036;28;20163;-71
2023/01/23 05:11:23;;;;;;;6.00;5.20;;;2.70;1.00;;;;;;5038719;28;20671;-71
2023/01/23 05:13:49;;;;;;;8.80;5.57;;;2.70;1.00;;;;;;5032980;28;20212;-71
2023/01/23 05:16:15;;;;;;;5.63;4.60;;;2.70;1.00;;;;;;5031907;28;20218;-71
2023/01/23 05:18:40;;;;;;;7.50;5.03;;;2.70;1.00;;;;;;5036253;28;20544;-71
2023/01/23 05:21:06;;;;;;;6.93;5.40;;;2.70;1.00;;;;;;5052365;28;20409;-71
2023/01/23 05:23:32;;;;;;;4.80;4.40;;;2.80;1.00;;;;;;5051820;28;20265;-71
2023/01/23 05:25:58;;;;;;;6.63;4.57;;;2.70;1.00;;;;;;5052023;28;20203;-71
2023/01/23 05:28:24;;;;;;;6.63;4.80;;;2.70;1.00;;;;;;5052824;28;20935;-71
2023/01/23 05:30:49;;;;;;;5.83;5.23;;;2.80;7.50;;;;;;5052765;28;20492;-71
2023/01/23 05:33:15;;;;;;;5.50;5.07;;;2.80;16.80;;;;;;5050002;28;20171;-72
2023/01/23 05:35:41;;;;;;;5.77;4.80;;;2.90;27.50;;;;;;5049325;28;20563;-71
2023/01/23 05:38:06;;;;;;;6.03;4.87;;;2.90;36.70;;;;;;5052114;28;20159;-71
2023/01/23 05:40:32;;;;;;;8.10;5.13;;;2.80;41.10;;;;;;5052761;28;20597;-71
2023/01/23 05:42:58;;;;;;;7.60;4.90;;;2.90;55.50;;;;;;5052736;28;20186;-71
2023/01/23 05:45:23;;;;;;;5.97;4.77;;;2.90;62.40;;;;;;5051804;28;20191;-71
2023/01/23 05:47:49;;;;;;;6.43;5.20;;;2.90;64.70;;;;;;5051646;28;20170;-71
2023/01/23 05:50:18;;;;;;;7.00;4.50;;;2.90;65.70;;;;;;5052590;28;20187;-71
2023/01/23 05:52:44;;;;;;;6.33;5.00;;;2.90;74.40;;;;;;5052426;28;20167;-71
2023/01/23 05:55:10;;;;;;;9.30;4.73;;;2.90;75.80;;;;;;5050250;28;20425;-71
2023/01/23 05:57:36;;;;;;;5.77;5.10;;;3.00;84.80;;;;;;5052516;28;20401;-72
2023/01/23 06:00:04;;;;;;;8.10;5.10;;;3.00;89.10;;;;;;5055238;28;20459;-72
2023/01/23 06:02:29;;;;;;;5.30;4.80;;;3.00;92.70;;;;;;5055538;28;20179;-72
2023/01/23 06:04:55;;;;;;;5.73;5.23;;;3.00;90.70;;;;;;5055359;28;20427;-71
2023/01/23 06:07:21;;;;;;;4.30;4.00;;;3.10;95.30;;;;;;5051801;28;20233;-72
2023/01/23 06:09:47;;;;;;;5.00;4.47;;;3.10;94.30;;;;;;5043495;28;20178;-71
2023/01/23 06:12:13;;;;;;;5.00;4.27;;;3.10;92.50;;;;;;5050135;28;20406;-71
2023/01/23 06:14:39;;;;;;;4.87;4.47;;;3.00;88.00;;;;;;5036702;28;20203;-71
2023/01/23 06:17:05;;;;;;;5.00;4.60;;;2.90;75.80;;;;;;5044524;28;20236;-72
2023/01/23 06:19:30;;;;;;;7.73;5.20;;;2.80;67.10;;;;;;5056127;28;20393;-71
2023/01/23 06:21:56;;;;;;;8.20;5.60;;;2.80;59.30;;;;;;5056208;28;20462;-72
2023/01/23 06:24:22;;;;;;;5.43;4.70;;;2.80;52.80;;;;;;5043820;28;20762;-72
2023/01/23 06:26:48;;;;;;;5.37;4.97;;;2.90;44.90;;;;;;5035918;28;20172;-71
2023/01/23 06:29:13;;;;;;;8.43;5.10;;;2.80;31.70;;;;;;5036205;28;20194;-71
2023/01/23 06:31:39;;;;;;;4.60;4.20;;;2.90;27.20;;;;;;5035512;28;20688;-71
2023/01/23 06:34:06;;;;;;;5.47;4.50;;;2.90;26.90;;;;;;5035538;28;20167;-72
2023/01/23 06:36:32;;;;;;;6.13;5.60;;;2.90;27.00;;;;;;5035275;28;20172;-71
2023/01/23 06:38:59;;;;;;;5.73;5.23;;;2.90;26.70;;;;;;5035313;28;20433;-71
2023/01/23 06:41:24;;;;;;;7.23;6.27;;;2.90;13.20;;;;;;5035819;28;20438;-72
2023/01/23 06:43:52;;;;;;;5.20;4.70;;;2.80;5.20;;;;;;5035845;28;20438;-71
2023/01/23 06:46:18;;;;;;;4.80;4.40;;;2.90;1.50;;;;;;5034824;28;20508;-71
2023/01/23 06:48:44;;;;;;;6.17;5.57;;;2.90;1.90;;;;;;5035709;28;20406;-71
2023/01/23 06:51:10;;;;;;;5.70;5.20;;;3.00;1.70;;;;;;5053408;28;20484;-72
2023/01/23 06:53:36;;;;;;;4.60;4.17;;;3.00;1.00;;;;;;5055592;28;20168;-72
2023/01/23 06:56:04;;;;;;;5.53;5.00;;;3.00;1.00;;;;;;5054613;28;20429;-72
2023/01/23 06:58:30;;;;;;;4.90;4.10;;;3.00;1.00;;;;;;5055469;28;20486;-71
2023/01/23 07:00:56;;;;;;;6.40;5.40;;;2.90;1.00;;;;;;5055329;28;20410;-71
2023/01/23 07:03:22;;;;;;;5.50;4.97;;;2.90;1.00;;;;;;5055361;28;20420;-72
2023/01/23 07:05:48;;;;;;;6.07;5.27;;;2.90;1.00;;;;;;5035196;28;20450;-73
2023/01/23 07:08:14;;;;;;;5.87;4.93;;;2.90;1.00;;;;;;5034932;28;20778;-73
2023/01/23 07:10:40;;;;;;;7.70;6.10;;;2.80;1.00;;;;;;5035002;28;20731;-71
2023/01/23 07:13:10;;;;;;;7.90;5.83;;;2.70;1.00;;;;;;5035177;28;20174;-71
2023/01/23 07:15:36;;;;;;;7.60;6.80;;;2.80;1.00;;;;;;5034228;28;20410;-73
2023/01/23 07:18:02;;;;;;;13.63;6.60;;;2.80;1.00;;;;;;5034572;28;20940;-72
2023/01/23 07:20:27;;;;;;;7.90;7.10;;;2.70;1.00;;;;;;5035184;28;20410;-71
2023/01/23 07:22:54;;;;;;;6.93;6.33;;;2.60;1.00;;;;;;5035027;28;20628;-71
2023/01/23 07:25:21;;;;;;;12.80;7.33;;;2.70;1.00;;;;;;5033470;28;20534;-71
2023/01/23 07:27:47;;;;;;;7.67;6.80;;;2.70;1.00;;;;;;5035015;28;20439;-71
2023/01/23 07:30:13;;;;;;;8.83;6.80;;;2.80;1.00;;;;;;5034857;28;20489;-71
2023/01/23 07:32:38;;;;;;;10.90;8.47;;;2.90;1.00;;;;;;5034650;28;20251;-72
2023/01/23 07:35:05;;;;;;;9.03;8.10;;;3.00;1.00;;;;;;5033812;28;20418;-72
2023/01/23 07:37:31;;;;;;;9.50;7.20;;;3.10;1.00;;;;;;5034653;28;20664;-71
2023/01/23 07:39:56;;;;;;;8.50;6.97;;;3.20;1.00;;;;;;5034952;28;20403;-71
2023/01/23 07:42:22;;;;;;;7.10;6.40;;;3.20;1.00;;;;;;5034742;28;20175;-71
2023/01/23 07:44:48;;;;;;;6.43;5.67;;;3.20;1.00;;;;;;5032600;28;20615;-71
2023/01/23 07:47:14;;;;;;;6.27;5.40;;;3.20;1.00;;;;;;5035076;28;20175;-72
2023/01/23 07:49:39;;;;;;;5.60;5.07;;;3.10;1.00;;;;;;5034410;28;20237;-72
2023/01/23 07:52:05;;;;;;;7.20;5.50;;;3.10;1.00;;;;;;5034563;28;20196;-71
2023/01/23 07:54:31;;;;;;;8.70;6.10;;;3.10;1.00;;;;;;5033773;28;20183;-71
2023/01/23 07:56:57;;;;;;;7.73;5.97;;;3.00;1.00;;;;;;5034419;28;20180;-71
2023/01/23 07:59:22;;;;;;;7.53;6.13;;;3.10;1.00;;;;;;5033826;28;20442;-72
2023/01/23 08:01:50;;;;;;;6.07;5.57;;;3.10;1.00;;;;;;5034370;28;20229;-72
2023/01/23 08:04:15;;;;;;;8.20;7.30;;;3.10;1.00;;;;;;5033368;28;20185;-71
2023/01/23 08:06:41;;;;;;;12.10;5.70;;;3.10;1.00;;;;;;5033592;28;20956;-71
2023/01/23 08:09:07;;;;;;;8.77;6.10;;;3.20;1.00;;;;;;5034250;28;20208;-72
2023/01/23 08:11:33;;;;;;;6.57;5.60;;;3.30;1.00;;;;;;5033348;28;20227;-71
2023/01/23 08:13:58;;;;;;;5.60;4.67;;;3.40;1.00;;;;;;5034080;28;20174;-71
2023/01/23 08:16:24;;;;;;;5.87;5.27;;;3.40;1.00;;;;;;5033132;28;20286;-71
2023/01/23 08:18:50;;;;;;;6.10;5.50;;;3.40;1.00;;;;;;5034106;28;20160;-72
2023/01/23 08:21:15;;;;;;;7.73;5.90;;;3.40;1.00;;;;;;5033644;28;20168;-72
2023/01/23 08:23:41;;;;;;;6.23;5.07;;;3.40;1.00;;;;;;5033157;28;20187;-72
2023/01/23 08:26:10;;;;;;;6.33;5.77;;;3.50;1.00;;;;;;5032209;28;20204;-72
2023/01/23 08:28:36;;;;;;;6.20;5.60;;;3.50;1.00;;;;;;5034015;28;20556;-72
2023/01/23 08:31:06;;;;;;;6.90;5.80;;;3.60;1.00;;;;;;5033672;28;20453;-71
2023/01/23 08:33:33;;;;;;;7.27;6.37;;;3.60;1.00;;;;;;5033674;28;20827;-72
2023/01/23 08:35:59;;;;;;;7.40;5.90;;;3.50;1.00;;;;;;5032540;28;21053;-72
2023/01/23 08:38:25;;;;;;;10.40;8.77;;;3.50;1.00;;;;;;5033035;28;20396;-72
2023/01/23 08:40:54;;;;;;;8.00;6.93;;;3.50;1.00;;;;;;5033068;28;20395;-72
2023/01/23 08:43:20;;;;;;;8.23;7.20;;;3.40;1.00;;;;;;5047151;28;20862;-73
2023/01/23 08:45:51;;;;;;;7.27;6.00;;;3.40;1.00;;;;;;5035608;28;20454;-72
2023/01/23 08:48:18;;;;;;;7.07;6.40;;;3.50;1.00;;;;;;5033491;28;20398;-73
2023/01/23 08:50:44;;;;;;;7.10;6.10;;;3.50;1.00;;;;;;5033341;28;20821;-72
2023/01/23 08:53:10;;;;;;;7.57;6.77;;;3.40;1.00;;;;;;5033130;28;20427;-73
2023/01/23 08:55:37;;;;;;;7.07;5.60;;;3.40;1.00;;;;;;5031951;28;20859;-73
2023/01/23 08:58:05;;;;;;;5.63;5.07;;;3.30;1.00;;;;;;5033076;28;20419;-73
2023/01/23 09:00:31;;;;;;;7.67;5.67;;;3.40;1.00;;;;;;5032923;28;20404;-73
2023/01/23 09:03:00;;;;;;;6.93;6.23;;;3.40;1.00;;;;;;5033081;28;20814;-73
2023/01/23 09:05:27;;;;;;;6.83;6.23;;;3.40;1.00;;;;;;5032337;28;20415;-73
2023/01/23 09:07:54;;;;;;;8.07;7.23;;;3.50;1.00;;;;;;5033277;28;20410;-74
2023/01/23 09:10:20;;;;;;;11.30;6.30;;;3.40;1.00;;;;;;5046884;28;20462;-74
2023/01/23 09:12:46;;;;;;;7.60;6.80;;;3.40;1.00;;;;;;5041623;28;20446;-73
2023/01/23 09:15:12;;;;;;;8.00;6.67;;;3.50;1.00;;;;;;5032315;28;20423;-72
2023/01/23 09:17:37;;;;;;;9.90;6.67;;;3.60;1.00;;;;;;5032717;28;20536;-71
2023/01/23 09:20:05;;;;;;;7.97;6.17;;;3.70;1.00;;;;;;5032831;28;20170;-72
2023/01/23 09:22:32;;;;;;;7.10;6.20;;;3.70;1.00;;;;;;5041301;28;20180;-72
2023/01/23 09:24:57;;;;;;;7.60;5.63;;;3.80;1.00;;;;;;5051984;28;20422;-72
2023/01/23 09:27:23;;;;;;;6.73;6.10;;;3.60;1.00;;;;;;5052836;28;20406;-73
2023/01/23 09:29:49;;;;;;;11.00;6.40;;;3.50;1.00;;;;;;5052784;28;20172;-73
2023/01/23 09:32:15;;;;;;;8.27;6.33;;;3.60;1.00;;;;;;5052692;28;20170;-72
2023/01/23 09:34:41;;;;;;;7.30;6.43;;;3.70;1.00;;;;;;5054025;28;20416;-72
2023/01/23 09:37:07;;;;;;;9.47;6.33;;;3.70;1.00;;;;;;5047878;28;20803;-72
2023/01/23 09:39:33;;;;;;;10.10;6.70;;;3.60;1.00;;;;;;5037037;28;20470;-72
2023/01/23 09:42:06;;;;;;;8.90;7.73;;;3.70;1.00;;;;;;5036369;28;20432;-72
2023/01/23 09:44:43;;;;;;;8.23;7.03;;;3.80;1.00;;;;;;5035906;28;20189;-72
2023/01/23 09:47:21;;;;;;;8.30;7.40;;;3.90;1.00;;;;;;5056941;28;20395;-72
2023/01/23 09:49:54;;;;;;;7.77;7.00;;;3.90;1.00;;;;;;5055736;28;20984;-73
2023/01/23 09:52:27;;;;;;;11.93;7.70;;;4.00;1.00;;;;;;5042214;28;20424;-72
2023/01/23 09:55:20;;;;;;;12.43;7.37;;;4.10;1.00;;;;;;5035270;28;20420;-72
2023/01/23 09:57:53;;;;;;;9.17;8.27;;;4.10;1.00;;;;;;5035666;28;20434;-71
2023/01/23 10:00:28;;;;;;;9.67;7.97;;;4.10;1.00;;;;;;5036544;28;20499;-72
2023/01/23 10:02:55;;;;;;;12.13;8.53;;;4.10;1.00;;;;;;5052148;28;21017;-72
2023/01/23 10:05:53;;;;;;;9.33;7.60;;;4.10;1.00;;;;;;5055452;28;20428;-72
2023/01/23 10:08:36;;;;;;;10.60;8.27;;;4.10;1.00;;;;;;5056447;28;20518;-72
2023/01/23 10:11:41;;;;;;;9.43;7.40;;;4.10;1.00;;;;;;5056232;28;20550;-72
2023/01/23 10:14:34;;;;;;;9.40;7.63;;;4.20;1.00;;;;;;5053573;28;20416;-73
2023/01/23 10:17:00;;;;;;;17.90;9.20;;;4.20;1.00;;;;;;5040656;28;20956;-72
2023/01/23 10:19:40;;;;;;;12.53;7.80;;;4.20;1.00;;;;;;5035751;28;20428;-72
2023/01/23 10:22:21;;;;;;;10.63;8.20;;;4.20;1.00;;;;;;5036213;28;20165;-72
2023/01/23 10:24:57;;;;;;;14.70;8.40;;;4.30;1.00;;;;;;5035147;28;20428;-72
2023/01/23 10:27:32;;;;;;;11.43;8.27;;;4.30;1.00;;;;;;5036018;28;20440;-72
2023/01/23 10:30:01;;;;;;;10.03;8.70;;;4.30;1.00;;;;;;5033707;28;20970;-71
2023/01/23 10:32:30;;;;;;;10.57;7.57;;;4.40;1.00;;;;;;5055851;28;20409;-72
2023/01/23 10:35:04;;;;;;;10.63;8.47;;;4.40;1.00;;;;;;5054853;28;20428;-72
2023/01/23 10:37:59;;;;;;;10.03;8.57;;;4.40;1.00;;;;;;5055751;28;20469;-73
2023/01/23 10:43:17;;;;;;;13.67;8.93;;;4.30;1.00;;;;;;5055917;28;20457;-72
2023/01/23 10:45:45;;;;;;;8.80;7.90;;;4.30;1.00;;;;;;5052738;28;20441;-72
2023/01/23 10:48:49;;;;;;;19.90;9.13;;;4.40;1.00;;;;;;5055648;28;20812;-72
2023/01/23 10:51:36;;;;;;;13.87;9.80;;;4.40;1.00;;;;;;5052512;28;20520;-72
2023/01/23 10:54:08;;;;;;;16.57;9.50;;;4.40;1.00;;;;;;5036236;28;20458;-73
2023/01/23 10:56:37;;;;;;;14.90;9.80;;;4.40;1.00;;;;;;5035015;28;20492;-71
2023/01/23 10:59:05;;;;;;;14.77;9.70;;;4.50;1.00;;;;;;5034277;28;20446;-71
2023/01/23 11:01:34;;;;;;;12.93;9.23;;;4.50;1.00;;;;;;5050199;28;20842;-71
2023/01/23 11:04:22;;;;;;;13.23;9.30;;;4.40;1.00;;;;;;5055040;28;20398;-71
2023/01/23 11:07:20;;;;;;;13.90;9.60;;;4.30;1.00;;;;;;5055294;28;20470;-72
2023/01/23 11:10:17;;;;;;;11.27;9.50;;;4.20;1.00;;;;;;5054263;28;20428;-72
2023/01/23 11:12:48;;;;;;;11.33;9.53;;;4.20;1.00;;;;;;5054302;28;20431;-72
2023/01/23 11:15:24;;;;;;;12.17;8.67;;;4.20;1.00;;;;;;5054150;28;20421;-71
2023/01/23 11:17:51;;;;;;;12.33;8.57;;;4.10;1.00;;;;;;5055168;28;20787;-71
2023/01/23 11:20:28;;;;;;;13.33;8.73;;;4.10;1.00;;;;;;5054747;28;20418;-72
2023/01/23 11:23:03;;;;;;;11.70;8.10;;;4.20;1.00;;;;;;5054989;28;20427;-72
2023/01/23 11:25:41;;;;;;;13.17;8.90;;;4.20;1.00;;;;;;5053978;28;20417;-72
2023/01/23 11:28:47;;;;;;;9.90;8.03;;;4.30;1.00;;;;;;5043645;28;20465;-72
2023/01/23 11:31:19;;;;;;;12.77;8.67;;;4.40;1.00;;;;;;5034492;28;20556;-72
2023/01/23 11:33:52;;;;;;;14.10;8.80;;;4.50;1.00;;;;;;5033768;28;20942;-72
2023/01/23 11:36:17;;;;;;;8.97;8.07;;;4.60;1.00;;;;;;5033858;28;20437;-72
2023/01/23 11:39:24;;;;;;;16.47;10.33;;;4.70;1.00;;;;;;5033397;28;20409;-72
2023/01/23 11:41:51;;;;;;;10.37;8.43;;;4.50;1.00;;;;;;5033841;28;20650;-72
2023/01/23 11:44:19;;;;;;;18.67;10.23;;;4.30;1.00;;;;;;5034369;28;20415;-72
2023/01/23 11:47:33;;;;;;;10.67;8.00;;;4.30;1.00;;;;;;5034289;28;20397;-72
2023/01/23 11:49:58;;;;;;;13.13;9.23;;;4.40;1.00;;;;;;5051242;28;20435;-72
2023/01/23 11:52:35;;;;;;;14.63;9.47;;;4.50;1.00;;;;;;5034722;28;20923;-72
2023/01/23 11:55:20;;;;;;;15.43;9.23;;;4.40;1.00;;;;;;5033586;28;20185;-72
2023/01/23 11:57:48;;;;;;;11.00;8.80;;;4.30;1.00;;;;;;5032901;28;20399;-72
2023/01/23 12:00:26;;;;;;;10.07;8.70;;;4.30;1.00;;;;;;5034402;28;20400;-72
2023/01/23 12:03:01;;;;;;;9.17;7.33;;;4.30;1.00;;;;;;5033891;28;20433;-71
2023/01/23 12:05:29;;;;;;;16.40;8.97;;;4.40;1.00;;;;;;5033240;28;20426;-71
2023/01/23 12:08:17;;;;;;;11.03;8.77;;;4.30;1.00;;;;;;5036608;28;20786;-72
2023/01/23 12:11:11;;;;;;;14.20;9.70;;;4.20;1.00;;;;;;5054078;28;20458;-72
2023/01/23 12:14:15;;;;;;;12.17;8.27;;;4.30;1.00;;;;;;5053806;28;20418;-72
2023/01/23 12:17:25;;;;;;;14.77;8.80;;;4.40;1.00;;;;;;5053320;28;20418;-72
2023/01/23 12:20:10;;;;;;;18.97;9.53;;;4.60;1.00;;;;;;5054023;28;20488;-71
2023/01/23 12:22:49;;;;;;;12.87;9.20;;;4.70;1.00;;;;;;5049651;28;20439;-72
2023/01/23 12:25:33;;;;;;;10.30;8.53;;;4.70;1.00;;;;;;5032935;28;20447;-72
2023/01/23 12:28:21;;;;;;;9.87;8.63;;;4.80;1.00;;;;;;5033871;28;20403;-71
2023/01/23 12:31:21;;;;;;;13.43;8.60;;;4.80;1.00;;;;;;5033747;28;20456;-72
2023/01/23 12:33:53;;;;;;;10.90;8.60;;;4.80;1.00;;;;;;5038703;28;20847;-72
2023/01/23 12:36:41;;;;;;;9.87;8.57;;;4.80;1.00;;;;;;5032725;28;20857;-71
2023/01/23 12:39:28;;;;;;;13.50;8.60;;;4.80;1.00;;;;;;5033760;28;20409;-71
2023/01/23 12:42:06;;;;;;;12.60;10.00;;;4.70;1.00;;;;;;5033028;28;20790;-72
2023/01/23 12:44:37;;;;;;;17.73;9.47;;;4.50;1.00;;;;;;5032744;28;20486;-72
2023/01/23 12:47:18;;;;;;;16.70;10.57;;;4.40;1.00;;;;;;5033745;28;20443;-71
2023/01/23 12:49:51;;;;;;;11.63;8.43;;;4.30;1.00;;;;;;5033114;28;20419;-72
2023/01/23 12:52:28;;;;;;;12.90;8.40;;;4.20;1.00;;;;;;5033119;28;20426;-72
2023/01/23 12:55:12;;;;;;;13.50;9.30;;;4.30;1.00;;;;;;5031943;28;20452;-72
2023/01/23 12:57:38;;;;;;;19.77;9.80;;;4.30;1.00;;;;;;5033367;28;20406;-72
2023/01/23 13:00:26;;;;;;;17.87;9.87;;;4.30;1.00;;;;;;5033340;28;20435;-72
2023/01/23 13:03:22;;;;;;;12.13;9.13;;;4.40;1.00;;;;;;5031889;28;20482;-72
2023/01/23 13:05:59;;;;;;;13.03;9.30;;;4.30;1.00;;;;;;5032326;28;20923;-72
2023/01/23 13:08:25;;;;;;;16.27;10.13;;;4.40;1.00;;;;;;5032764;28;20436;-72
2023/01/23 13:13:54;;;;;;;20.33;11.27;;;4.60;1.00;;;;;;5033122;28;20179;-72
2023/01/23 13:16:24;;;;;;;18.67;9.80;;;4.70;1.00;;;;;;5032115;28;20422;-72
2023/01/23 13:27:57;;;;;;;13.03;8.50;;;4.80;1.00;;;;;;5033045;28;20393;-70
2023/01/23 13:30:31;;;;;;;18.93;10.77;;;4.80;99.90;;;;;;5032370;28;20451;-71
2023/01/23 13:33:38;;;;;;;16.63;9.77;;;4.80;99.90;;;;;;5032925;28;20406;-72
2023/01/23 13:36:24;;;;;;;14.50;9.30;;;4.80;99.90;;;;;;5030980;28;20985;-72
2023/01/23 13:39:00;;;;;;;20.80;11.60;;;4.80;99.90;;;;;;5032872;28;20924;-72